Terminal Aerodrome Forecast
Issued by NWS Albuquerque, NM

Home | Current Version | Previous Version | Text Only | Print | Product List | Glossary On
Versions: 1 2 3 4 5 6 7 8 9 10 11 12 13
000
FTUS45 KABQ 250536
TAFABQ
TAF
KABQ 250536Z 2506/2606 15009KT P6SM SKC
     FM251000 10006KT P6SM SKC
     FM251900 23008KT P6SM SKC
     FM260100 16006KT P6SM SKC=

USA.gov is the U.S. government's official web portal to all federal, state and local government web resources and services.